createdAt,value
2019-05-25T00:00:55.441Z,62.43
2019-05-25T00:01:55.436Z,62.33
2019-05-25T00:02:55.456Z,62.14
2019-05-25T00:03:55.429Z,62.04
2019-05-25T00:04:55.425Z,62.23
2019-05-25T00:05:55.423Z,62.33
2019-05-25T00:06:55.417Z,62.62
2019-05-25T00:07:55.416Z,62.81
2019-05-25T00:08:55.409Z,62.71
2019-05-25T00:09:55.405Z,63.19
2019-05-25T00:10:55.394Z,63.39
2019-05-25T00:11:55.405Z,63.67
2019-05-25T00:12:55.385Z,63.67
2019-05-25T00:13:55.378Z,63.86
2019-05-25T00:14:55.380Z,63.76
2019-05-25T00:15:55.374Z,64.34
2019-05-25T00:16:55.370Z,64.25
2019-05-25T00:17:55.365Z,64.05
2019-05-25T00:18:55.359Z,63.93
2019-05-25T00:19:55.352Z,63.39
2019-05-25T00:20:55.348Z,63.73
2019-05-25T00:21:55.341Z,63.83
2019-05-25T00:22:55.341Z,64.12
2019-05-25T00:24:10.863Z,64.12
2019-05-25T00:24:55.327Z,63.93
2019-05-25T00:25:55.327Z,64.31
2019-05-25T00:26:55.319Z,64.40
2019-05-25T00:27:55.317Z,64.50
2019-05-25T00:28:55.311Z,64.69
2019-05-25T00:29:55.307Z,64.79
2019-05-25T00:30:55.302Z,65.26
2019-05-25T00:31:55.294Z,64.98
2019-05-25T00:32:55.285Z,64.69
2019-05-25T00:33:55.285Z,64.69
2019-05-25T00:34:55.282Z,64.98
2019-05-25T00:35:55.276Z,65.26
2019-05-25T00:36:55.278Z,65.26
2019-05-25T00:37:55.278Z,65.26
2019-05-25T00:38:55.306Z,65.08
2019-05-25T00:39:55.255Z,64.69
2019-05-25T00:40:55.249Z,64.56
2019-05-25T00:41:55.246Z,65.17
2019-05-25T00:42:55.237Z,64.79
2019-05-25T00:43:55.233Z,64.85
2019-05-25T00:44:55.225Z,65.26
2019-05-25T00:45:55.217Z,65.04
2019-05-25T00:46:55.227Z,65.23
2019-05-25T00:47:55.215Z,65.23
2019-05-25T00:48:55.208Z,65.42
2019-05-25T00:49:55.206Z,64.85
2019-05-25T00:50:55.195Z,65.81
2019-05-25T00:51:55.192Z,66.28
2019-05-25T00:52:55.185Z,66.57
2019-05-25T00:53:55.176Z,66.57
2019-05-25T00:54:55.207Z,66.57
2019-05-25T00:55:55.176Z,66.19
2019-05-25T00:56:55.166Z,66.00
2019-05-25T00:57:55.160Z,66.28
2019-05-25T00:58:55.160Z,66.76
2019-05-25T00:59:55.155Z,66.47
2019-05-25T01:00:55.165Z,66.57
2019-05-25T01:01:55.143Z,67.05
2019-05-25T01:02:55.130Z,66.86
2019-05-25T01:03:55.128Z,66.67
2019-05-25T01:04:55.121Z,66.57
2019-05-25T01:05:55.128Z,67.05
2019-05-25T01:06:55.122Z,67.05
2019-05-25T01:07:55.112Z,67.43
2019-05-25T01:08:55.104Z,67.24
2019-05-25T01:09:55.101Z,66.67
2019-05-25T01:10:55.092Z,67.14
2019-05-25T01:11:55.088Z,67.43
2019-05-25T01:12:55.084Z,67.82
2019-05-25T01:13:55.081Z,67.72
2019-05-25T01:14:55.071Z,68.10
2019-05-25T01:15:55.056Z,68.77
2019-05-25T01:16:55.078Z,68.58
2019-05-25T01:17:55.057Z,68.58
2019-05-25T01:18:55.052Z,68.58
2019-05-25T01:19:55.045Z,68.87
2019-05-25T01:20:55.040Z,68.20
2019-05-25T01:21:55.046Z,68.58
2019-05-25T01:22:55.027Z,68.68
2019-05-25T01:23:55.021Z,68.58
2019-05-25T01:24:55.017Z,68.58
2019-05-25T01:25:55.008Z,68.68
2019-05-25T01:26:55.033Z,68.96
2019-05-25T01:27:55.003Z,69.31
2019-05-25T01:28:54.996Z,69.06
2019-05-25T01:29:54.982Z,68.96
2019-05-25T01:30:54.988Z,69.41
2019-05-25T01:31:54.988Z,69.25
2019-05-25T01:32:54.971Z,69.41
2019-05-25T01:33:54.968Z,69.60
2019-05-25T01:34:54.989Z,69.50
2019-05-25T01:35:54.954Z,69.31
2019-05-25T01:36:54.957Z,69.60
2019-05-25T01:37:54.939Z,70.07
2019-05-25T01:38:54.941Z,69.79
2019-05-25T01:39:54.935Z,69.98
2019-05-25T01:40:54.949Z,70.56
2019-05-25T01:41:54.929Z,70.17
2019-05-25T01:42:54.926Z,70.94
2019-05-25T01:43:54.910Z,70.75
2019-05-25T01:44:54.907Z,70.65
2019-05-25T01:45:54.917Z,70.65
2019-05-25T01:46:54.895Z,71.22
2019-05-25T01:47:54.888Z,70.94
2019-05-25T01:48:54.881Z,70.84
2019-05-25T01:49:54.880Z,70.84
2019-05-25T01:50:54.876Z,70.84
2019-05-25T01:51:54.866Z,71.22
2019-05-25T01:52:54.870Z,71.13
2019-05-25T01:53:54.860Z,71.70
2019-05-25T01:54:59.868Z,72.28
2019-05-25T01:55:54.842Z,72.28
2019-05-25T01:56:54.843Z,72.08
2019-05-25T01:57:54.854Z,72.18
2019-05-25T01:58:54.831Z,72.37
2019-05-25T01:59:54.826Z,72.91
2019-05-25T02:00:54.837Z,73.29
2019-05-25T02:01:54.810Z,73.10
2019-05-25T02:02:54.808Z,73.39
2019-05-25T02:03:54.815Z,73.71
2019-05-25T02:04:54.796Z,73.67
2019-05-25T02:05:54.792Z,73.58
2019-05-25T02:06:54.788Z,73.86
2019-05-25T02:07:54.777Z,73.77
2019-05-25T02:08:54.794Z,73.86
2019-05-25T02:09:54.763Z,74.34
2019-05-25T02:10:54.763Z,74.63
2019-05-25T02:11:54.758Z,74.63
2019-05-25T02:12:54.751Z,74.53
2019-05-25T02:13:54.760Z,74.82
2019-05-25T02:14:54.735Z,74.82
2019-05-25T02:15:54.798Z,74.82
2019-05-25T02:16:54.727Z,75.39
2019-05-25T02:17:54.720Z,75.30
2019-05-25T02:18:54.712Z,75.49
2019-05-25T02:19:54.704Z,76.16
2019-05-25T02:20:54.696Z,76.06
2019-05-25T02:21:54.695Z,76.25
2019-05-25T02:22:54.691Z,76.31
2019-05-25T02:23:54.689Z,77.21
2019-05-25T02:24:54.673Z,76.82
2019-05-25T02:25:54.683Z,77.01
2019-05-25T02:26:54.665Z,76.92
2019-05-25T02:27:54.659Z,77.01
2019-05-25T02:28:54.651Z,77.08
2019-05-25T02:29:54.645Z,77.45
2019-05-25T02:30:54.645Z,77.65
2019-05-25T02:31:54.636Z,77.74
2019-05-25T02:32:54.624Z,77.55
2019-05-25T02:33:54.625Z,78.51
2019-05-25T02:34:54.624Z,79.17
2019-05-25T02:35:54.618Z,79.46
2019-05-25T02:36:54.616Z,78.99
2019-05-25T02:37:54.604Z,79.36
2019-05-25T02:38:54.591Z,79.65
2019-05-25T02:39:54.587Z,79.17
2019-05-25T02:40:54.573Z,79.36
2019-05-25T02:41:54.570Z,79.08
2019-05-25T02:42:54.589Z,79.85
2019-05-25T02:43:54.562Z,80.22
2019-05-25T02:44:54.555Z,80.04
2019-05-25T02:45:54.555Z,80.22
2019-05-25T02:46:54.544Z,80.51
2019-05-25T02:47:54.534Z,81.18
2019-05-25T02:48:54.532Z,80.61
2019-05-25T02:49:54.525Z,80.66
2019-05-25T02:50:54.523Z,80.95
2019-05-25T02:51:54.511Z,80.28
2019-05-25T02:52:54.499Z,80.38
2019-05-25T02:53:54.498Z,80.57
2019-05-25T02:54:54.492Z,80.95
2019-05-25T02:55:54.487Z,80.76
2019-05-25T02:56:54.481Z,81.24
2019-05-25T02:57:54.491Z,81.71
2019-05-25T02:58:54.466Z,81.81
2019-05-25T02:59:54.460Z,81.71
2019-05-25T03:00:54.451Z,81.90
2019-05-25T03:01:54.446Z,82.00
2019-05-25T03:02:54.447Z,82.00
2019-05-25T03:03:54.436Z,82.76
2019-05-25T03:04:54.427Z,82.57
2019-05-25T03:05:54.420Z,83.34
2019-05-25T03:06:54.418Z,83.14
2019-05-25T03:07:54.411Z,83.34
2019-05-25T03:08:54.405Z,82.76
2019-05-25T03:09:54.398Z,83.14
2019-05-25T03:10:54.392Z,82.95
2019-05-25T03:11:54.383Z,82.67
2019-05-25T03:12:54.376Z,83.14
2019-05-25T03:13:54.366Z,83.24
2019-05-25T03:14:54.368Z,83.14
2019-05-25T03:15:54.358Z,83.14
2019-05-25T03:16:54.355Z,82.76
2019-05-25T03:17:54.348Z,82.67
2019-05-25T03:18:54.338Z,82.67
2019-05-25T03:19:54.351Z,82.57
2019-05-25T03:20:54.326Z,83.14
2019-05-25T03:21:54.323Z,83.05
2019-05-25T03:22:54.311Z,83.24
2019-05-25T03:23:54.306Z,83.05
2019-05-25T03:24:54.302Z,83.14
2019-05-25T03:25:54.292Z,83.24
2019-05-25T03:26:54.289Z,82.76
2019-05-25T03:27:54.283Z,83.14
2019-05-25T03:28:54.285Z,82.67
2019-05-25T03:29:54.270Z,83.05
2019-05-25T03:30:54.261Z,83.24
2019-05-25T03:31:54.254Z,83.91
2019-05-25T03:32:54.249Z,83.24
2019-05-25T03:33:54.240Z,83.14
2019-05-25T03:34:54.246Z,83.05
2019-05-25T03:35:54.223Z,83.91
2019-05-25T03:36:54.225Z,83.72
2019-05-25T03:37:54.216Z,83.72
2019-05-25T03:38:54.211Z,84.00
2019-05-25T03:39:54.205Z,84.10
2019-05-25T03:40:54.202Z,83.81
2019-05-25T03:41:54.194Z,83.53
2019-05-25T03:42:54.179Z,84.29
2019-05-25T03:43:54.175Z,84.39
2019-05-25T03:44:54.171Z,84.00
2019-05-25T03:45:54.164Z,83.91
2019-05-25T03:46:54.163Z,84.10
2019-05-25T03:47:54.154Z,84.00
2019-05-25T03:48:54.148Z,83.91
2019-05-25T03:49:54.140Z,83.53
2019-05-25T03:50:54.132Z,83.91
2019-05-25T03:51:54.131Z,83.53
2019-05-25T03:52:54.120Z,83.91
2019-05-25T03:53:54.117Z,83.91
2019-05-25T03:54:54.114Z,84.10
2019-05-25T03:56:05.155Z,84.29
2019-05-25T03:56:54.092Z,84.10
2019-05-25T03:57:54.078Z,84.77
2019-05-25T03:58:54.088Z,84.14
2019-05-25T03:59:54.086Z,84.00
2019-05-25T04:00:54.075Z,84.10
2019-05-25T04:01:54.064Z,84.29
2019-05-25T04:02:54.060Z,84.00
2019-05-25T04:03:54.048Z,84.10
2019-05-25T04:04:54.044Z,84.10
2019-05-25T04:05:54.050Z,84.10
2019-05-25T04:06:54.032Z,84.00
2019-05-25T04:07:54.026Z,84.77
2019-05-25T04:08:54.013Z,84.39
2019-05-25T04:09:54.016Z,84.67
2019-05-25T04:10:54.020Z,84.29
2019-05-25T04:11:54.003Z,83.72
2019-05-25T04:12:54.020Z,83.81
2019-05-25T04:13:53.986Z,84.00
2019-05-25T04:14:53.986Z,84.10
2019-05-25T04:15:53.975Z,84.00
2019-05-25T04:16:53.989Z,83.91
2019-05-25T04:17:53.958Z,83.81
2019-05-25T04:18:53.955Z,83.91
2019-05-25T04:19:53.954Z,83.91
2019-05-25T04:20:53.950Z,84.00
2019-05-25T04:21:53.939Z,84.67
2019-05-25T04:22:53.927Z,84.72
2019-05-25T04:23:53.922Z,84.77
2019-05-25T04:24:53.917Z,84.72
2019-05-25T04:25:53.920Z,85.10
2019-05-25T04:26:53.903Z,84.72
2019-05-25T04:27:53.895Z,84.67
2019-05-25T04:28:53.887Z,84.81
2019-05-25T04:29:53.883Z,84.77
2019-05-25T04:30:53.889Z,84.52
2019-05-25T04:31:53.873Z,84.81
2019-05-25T04:32:53.867Z,84.72
2019-05-25T04:33:53.859Z,84.52
2019-05-25T04:34:53.869Z,85.00
2019-05-25T04:35:53.848Z,85.38
2019-05-25T04:36:53.842Z,84.52
2019-05-25T04:37:53.837Z,84.72
2019-05-25T04:38:53.833Z,85.19
2019-05-25T04:39:53.886Z,84.91
2019-05-25T04:40:53.816Z,84.23
2019-05-25T04:41:53.817Z,84.43
2019-05-25T04:42:53.835Z,84.72
2019-05-25T04:43:53.817Z,84.33
2019-05-25T04:44:53.790Z,84.14
2019-05-25T04:45:53.801Z,83.76
2019-05-25T04:46:53.777Z,83.95
2019-05-25T04:47:53.764Z,83.80
2019-05-25T04:48:53.766Z,83.61
2019-05-25T04:49:53.761Z,82.84
2019-05-25T04:50:53.755Z,83.33
2019-05-25T04:51:53.749Z,83.13
2019-05-25T04:52:53.742Z,82.65
2019-05-25T04:53:53.748Z,82.46
2019-05-25T04:54:53.734Z,81.70
2019-05-25T04:55:53.721Z,81.41
2019-05-25T04:56:53.724Z,81.13
2019-05-25T04:57:53.737Z,81.79
2019-05-25T04:58:53.705Z,80.84
2019-05-25T04:59:53.729Z,80.79
2019-05-25T05:00:53.703Z,80.84
2019-05-25T05:01:53.686Z,80.74
2019-05-25T05:02:53.689Z,80.88
2019-05-25T05:03:53.680Z,80.88
2019-05-25T05:04:53.688Z,80.69
2019-05-25T05:05:53.667Z,80.98
2019-05-25T05:06:53.673Z,80.88
2019-05-25T05:07:53.659Z,80.88
2019-05-25T05:08:53.648Z,80.79
2019-05-25T05:10:02.286Z,80.59
2019-05-25T05:10:53.640Z,80.59
2019-05-25T05:11:53.627Z,80.30
2019-05-25T05:12:53.628Z,80.59
2019-05-25T05:13:53.618Z,80.30
2019-05-25T05:14:56.445Z,79.73
2019-05-25T05:15:53.612Z,79.73
2019-05-25T05:16:53.609Z,79.39
2019-05-25T05:17:53.600Z,79.49
2019-05-25T05:18:53.596Z,77.76
2019-05-25T05:19:53.588Z,77.51
2019-05-25T05:20:53.585Z,76.31
2019-05-25T05:21:53.579Z,75.93
2019-05-25T05:22:53.577Z,74.72
2019-05-25T05:23:53.593Z,74.24
2019-05-25T05:24:53.570Z,73.32
2019-05-25T05:25:53.565Z,72.27
2019-05-25T05:26:56.193Z,71.63
2019-05-25T05:27:53.555Z,70.67
2019-05-25T05:28:53.552Z,70.90
2019-05-25T05:29:54.368Z,69.65
2019-05-25T05:30:53.541Z,68.69
2019-05-25T05:31:53.558Z,68.73
2019-05-25T05:32:53.543Z,68.15
2019-05-25T05:33:53.538Z,68.47
2019-05-25T05:34:53.541Z,67.99
2019-05-25T05:35:53.546Z,67.70
2019-05-25T05:36:53.541Z,67.03
2019-05-25T05:37:53.537Z,67.76
2019-05-25T05:38:53.540Z,68.73
2019-05-25T05:39:53.532Z,67.86
2019-05-25T05:40:53.532Z,67.67
2019-05-25T05:41:53.535Z,68.63
2019-05-25T05:42:53.545Z,68.44
2019-05-25T05:43:54.379Z,68.91
2019-05-25T05:44:53.546Z,68.85
2019-05-25T05:45:53.551Z,68.18
2019-05-25T05:46:53.531Z,68.12
2019-05-25T05:47:53.539Z,67.45
2019-05-25T05:48:53.539Z,67.10
2019-05-25T05:49:53.568Z,66.91
2019-05-25T05:50:53.540Z,65.84
2019-05-25T05:51:53.538Z,65.69
2019-05-25T05:52:53.536Z,65.40
2019-05-25T05:53:53.537Z,65.20
2019-05-25T05:54:53.547Z,65.50
2019-05-25T05:55:53.550Z,64.92
2019-05-25T05:56:53.549Z,64.95
2019-05-25T05:57:53.550Z,64.47
2019-05-25T05:58:53.551Z,64.56
2019-05-25T05:59:53.551Z,63.99
2019-05-25T06:00:53.561Z,63.70
2019-05-25T06:01:53.563Z,62.87
2019-05-25T06:02:53.570Z,63.54
2019-05-25T06:03:53.559Z,63.64
2019-05-25T06:04:53.566Z,63.44
2019-05-25T06:05:53.569Z,62.51
2019-05-25T06:06:53.580Z,62.51
2019-05-25T06:07:53.579Z,62.99
2019-05-25T06:08:53.582Z,62.60
2019-05-25T06:09:53.585Z,62.60
2019-05-25T06:10:53.591Z,62.35
2019-05-25T06:11:53.590Z,61.77
2019-05-25T06:12:53.594Z,62.25
2019-05-25T06:13:53.604Z,61.61
2019-05-25T06:14:53.605Z,61.71
2019-05-25T06:15:55.937Z,61.13
2019-05-25T06:16:53.611Z,60.68
2019-05-25T06:17:53.616Z,60.58
2019-05-25T06:18:53.624Z,60.48
2019-05-25T06:19:53.630Z,59.90
2019-05-25T06:20:53.640Z,59.71
2019-05-25T06:21:53.633Z,60.00
2019-05-25T06:22:53.641Z,60.38
2019-05-25T06:23:53.644Z,60.19
2019-05-25T06:24:53.650Z,60.13
2019-05-25T06:25:53.658Z,60.00
2019-05-25T06:26:53.666Z,58.97
2019-05-25T06:27:53.672Z,59.64
2019-05-25T06:28:53.680Z,59.74
2019-05-25T06:29:53.682Z,59.74
2019-05-25T06:30:53.680Z,59.67
2019-05-25T06:31:53.687Z,59.19
2019-05-25T06:32:53.705Z,57.84
2019-05-25T06:33:53.705Z,58.22
2019-05-25T06:34:53.705Z,58.54
2019-05-25T06:35:53.712Z,57.87
2019-05-25T06:36:53.718Z,57.67
2019-05-25T06:37:53.726Z,57.67
2019-05-25T06:38:53.733Z,57.96
2019-05-25T06:39:53.739Z,58.06
2019-05-25T06:40:53.748Z,58.15
2019-05-25T06:41:53.751Z,57.87
2019-05-25T06:42:53.756Z,57.48
2019-05-25T06:43:53.755Z,57.51
2019-05-25T06:44:53.778Z,57.21
2019-05-25T06:45:53.774Z,57.60
2019-05-25T06:46:53.791Z,57.12
2019-05-25T06:47:53.790Z,57.09
2019-05-25T06:48:53.797Z,58.12
2019-05-25T06:49:53.803Z,59.35
2019-05-25T06:50:53.815Z,59.35
2019-05-25T06:51:53.821Z,59.83
2019-05-25T06:52:57.620Z,60.48
2019-05-25T06:53:53.836Z,60.58
2019-05-25T06:54:53.846Z,61.80
2019-05-25T06:55:53.846Z,62.38
2019-05-25T06:56:53.867Z,62.38
2019-05-25T06:57:53.857Z,62.63
2019-05-25T06:58:53.868Z,62.45
2019-05-25T06:59:53.873Z,62.45
2019-05-25T07:00:53.880Z,62.28
2019-05-25T07:01:53.890Z,62.48
2019-05-25T07:02:53.890Z,61.99
2019-05-25T07:03:53.893Z,62.66
2019-05-25T07:04:53.902Z,62.66
2019-05-25T07:05:53.909Z,62.86
2019-05-25T07:06:53.910Z,62.70
2019-05-25T07:07:54.676Z,62.60
2019-05-25T07:08:53.920Z,62.44
2019-05-25T07:09:53.927Z,62.25
2019-05-25T07:10:53.940Z,62.12
2019-05-25T07:11:53.942Z,62.44
2019-05-25T07:12:54.015Z,62.34
2019-05-25T07:13:53.955Z,62.25
2019-05-25T07:14:53.960Z,62.63
2019-05-25T07:15:53.965Z,61.67
2019-05-25T07:16:53.971Z,61.38
2019-05-25T07:17:53.976Z,61.74
2019-05-25T07:18:53.988Z,61.64
2019-05-25T07:19:53.992Z,61.44
2019-05-25T07:20:53.998Z,61.74
2019-05-25T07:21:54.008Z,62.12
2019-05-25T07:22:54.015Z,61.54
2019-05-25T07:23:54.022Z,61.74
2019-05-25T07:24:54.026Z,61.64
2019-05-25T07:25:54.032Z,60.51
2019-05-25T07:26:54.036Z,60.13
2019-05-25T07:27:59.769Z,60.61
2019-05-25T07:28:54.059Z,60.22
2019-05-25T07:29:54.059Z,59.93
2019-05-25T07:30:54.062Z,60.03
2019-05-25T07:31:54.078Z,59.64
2019-05-25T07:32:54.087Z,60.13
2019-05-25T07:33:54.097Z,60.51
2019-05-25T07:34:54.094Z,60.41
2019-05-25T07:35:54.100Z,60.41
2019-05-25T07:36:54.113Z,60.16
2019-05-25T07:37:54.116Z,59.35
2019-05-25T07:38:54.119Z,60.13
2019-05-25T07:39:54.126Z,60.51
2019-05-25T07:40:54.133Z,60.41
2019-05-25T07:41:54.139Z,60.54
2019-05-25T07:42:54.148Z,60.80
2019-05-25T07:43:54.144Z,61.57
2019-05-25T07:44:54.165Z,60.99
2019-05-25T07:45:54.176Z,61.28
2019-05-25T07:46:54.171Z,60.99
2019-05-25T07:47:54.179Z,61.67
2019-05-25T07:48:54.186Z,61.19
2019-05-25T07:49:54.190Z,60.89
2019-05-25T07:50:54.203Z,60.99
2019-05-25T07:51:54.206Z,61.28
2019-05-25T07:52:54.210Z,61.31
2019-05-25T07:53:54.215Z,61.22
2019-05-25T07:54:54.225Z,61.22
2019-05-25T07:55:54.232Z,60.83
2019-05-25T07:56:54.236Z,60.64
2019-05-25T07:57:54.243Z,60.73
2019-05-25T07:58:54.245Z,60.71
2019-05-25T07:59:54.254Z,60.99
2019-05-25T08:00:54.264Z,61.47
2019-05-25T08:01:54.271Z,61.86
2019-05-25T08:02:54.281Z,61.77
2019-05-25T08:03:54.281Z,61.77
2019-05-25T08:04:54.283Z,62.02
2019-05-25T08:05:54.290Z,61.61
2019-05-25T08:06:54.381Z,62.09
2019-05-25T08:07:54.293Z,62.57
2019-05-25T08:08:54.304Z,62.60
2019-05-25T08:09:54.310Z,63.76
2019-05-25T08:10:54.320Z,64.05
2019-05-25T08:11:54.314Z,63.37
2019-05-25T08:12:54.323Z,63.37
2019-05-25T08:13:54.325Z,62.99
2019-05-25T08:14:54.325Z,63.15
2019-05-25T08:15:54.348Z,63.24
2019-05-25T08:16:54.389Z,63.18
2019-05-25T08:17:54.357Z,63.44
2019-05-25T08:18:54.350Z,63.06
2019-05-25T08:19:54.358Z,62.76
2019-05-25T08:20:54.374Z,62.28
2019-05-25T08:21:54.357Z,62.18
2019-05-25T08:22:54.370Z,62.22
2019-05-25T08:23:54.368Z,62.31
2019-05-25T08:24:54.380Z,62.12
2019-05-25T08:25:54.379Z,62.99
2019-05-25T08:26:54.390Z,62.57
2019-05-25T08:27:54.393Z,62.76
2019-05-25T08:28:54.398Z,62.28
2019-05-25T08:29:54.398Z,61.99
2019-05-25T08:30:54.394Z,62.57
2019-05-25T08:31:54.410Z,62.73
2019-05-25T08:32:54.402Z,63.24
2019-05-25T08:33:54.410Z,63.73
2019-05-25T08:34:54.417Z,63.73
2019-05-25T08:35:54.419Z,63.18
2019-05-25T08:36:54.431Z,62.70
2019-05-25T08:37:54.426Z,62.02
2019-05-25T08:38:55.031Z,62.89
2019-05-25T08:39:54.434Z,62.60
2019-05-25T08:40:54.445Z,62.38
2019-05-25T08:41:54.444Z,62.31
2019-05-25T08:42:54.447Z,62.12
2019-05-25T08:43:54.468Z,61.93
2019-05-25T08:44:54.452Z,62.15
2019-05-25T08:45:54.455Z,62.34
2019-05-25T08:46:55.564Z,61.96
2019-05-25T08:47:57.106Z,60.71
2019-05-25T08:48:54.471Z,60.31
2019-05-25T08:49:54.473Z,60.80
2019-05-25T08:50:54.473Z,60.22
2019-05-25T08:51:55.135Z,60.22
2019-05-25T08:52:54.489Z,60.41
2019-05-25T08:53:54.485Z,61.28
2019-05-25T08:54:56.708Z,62.05
2019-05-25T08:55:54.497Z,62.92
2019-05-25T08:56:54.496Z,61.96
2019-05-25T08:57:54.498Z,62.02
2019-05-25T08:58:55.651Z,61.35
2019-05-25T08:59:54.511Z,60.96
2019-05-25T09:00:54.513Z,61.35
2019-05-25T09:01:54.520Z,61.32
2019-05-25T09:02:54.517Z,62.18
2019-05-25T09:03:54.528Z,61.99
2019-05-25T09:04:54.526Z,62.38
2019-05-25T09:05:54.545Z,62.38
2019-05-25T09:06:54.542Z,62.41
2019-05-25T09:07:54.538Z,62.02
2019-05-25T09:08:54.540Z,62.79
2019-05-25T09:09:54.545Z,62.66
2019-05-25T09:10:54.546Z,61.99
2019-05-25T09:11:54.547Z,62.76
2019-05-25T09:12:54.554Z,62.66
2019-05-25T09:13:54.555Z,61.99
2019-05-25T09:14:54.555Z,62.66
2019-05-25T09:15:54.560Z,62.48
2019-05-25T09:16:54.563Z,62.66
2019-05-25T09:17:54.571Z,62.86
2019-05-25T09:18:54.571Z,63.06
2019-05-25T09:19:54.572Z,62.86
2019-05-25T09:20:54.576Z,62.66
2019-05-25T09:22:02.426Z,61.99
2019-05-25T09:22:54.577Z,62.18
2019-05-25T09:23:54.578Z,63.24
2019-05-25T09:24:54.582Z,62.48
2019-05-25T09:25:54.599Z,60.74
2019-05-25T09:26:54.587Z,60.26
2019-05-25T09:27:54.595Z,61.32
2019-05-25T09:29:04.007Z,61.77
2019-05-25T09:29:54.597Z,62.54
2019-05-25T09:30:54.607Z,62.54
2019-05-25T09:31:54.606Z,62.83
2019-05-25T09:32:54.608Z,62.73
2019-05-25T09:33:54.618Z,62.48
2019-05-25T09:34:54.610Z,62.09
2019-05-25T09:35:54.611Z,63.06
2019-05-25T09:36:54.616Z,62.48
2019-05-25T09:37:54.619Z,62.48
2019-05-25T09:38:54.640Z,62.48
2019-05-25T09:39:54.626Z,62.76
2019-05-25T09:40:54.629Z,63.79
2019-05-25T09:41:54.631Z,63.41
2019-05-25T09:42:54.665Z,63.34
2019-05-25T09:43:54.631Z,63.92
2019-05-25T09:44:54.631Z,62.76
2019-05-25T09:45:54.639Z,62.66
2019-05-25T09:46:54.638Z,62.38
2019-05-25T09:47:54.637Z,61.10
2019-05-25T09:48:54.642Z,61.58
2019-05-25T09:49:54.651Z,62.35
2019-05-25T09:50:54.659Z,62.45
2019-05-25T09:51:54.653Z,62.35
2019-05-25T09:52:54.656Z,62.15
2019-05-25T09:53:54.657Z,62.83
2019-05-25T09:54:55.694Z,62.45
2019-05-25T09:55:54.661Z,62.63
2019-05-25T09:56:54.663Z,63.12
2019-05-25T09:57:54.661Z,62.93
2019-05-25T09:58:54.668Z,62.93
2019-05-25T09:59:54.671Z,63.31
2019-05-25T10:00:54.667Z,62.54
2019-05-25T10:01:54.673Z,61.68
2019-05-25T10:02:54.689Z,61.87
2019-05-25T10:03:56.642Z,62.54
2019-05-25T10:04:54.678Z,62.83
2019-05-25T10:05:54.691Z,62.86
2019-05-25T10:06:54.719Z,62.28
2019-05-25T10:07:54.682Z,62.28
2019-05-25T10:08:54.680Z,62.73
2019-05-25T10:09:54.685Z,62.57
2019-05-25T10:10:54.693Z,62.73
2019-05-25T10:11:54.690Z,62.93
2019-05-25T10:12:54.692Z,63.60
2019-05-25T10:13:54.700Z,63.21
2019-05-25T10:14:54.698Z,63.12
2019-05-25T10:15:54.698Z,63.34
2019-05-25T10:16:54.697Z,62.93
2019-05-25T10:17:54.700Z,62.83
2019-05-25T10:18:54.697Z,62.83
2019-05-25T10:19:54.697Z,62.06
2019-05-25T10:20:54.701Z,62.15
2019-05-25T10:21:54.708Z,62.06
2019-05-25T10:22:54.706Z,62.25
2019-05-25T10:23:54.706Z,62.15
2019-05-25T10:24:54.711Z,62.57
2019-05-25T10:25:54.706Z,62.66
2019-05-25T10:26:54.706Z,63.06
2019-05-25T10:27:54.706Z,63.24
2019-05-25T10:28:54.711Z,61.61
2019-05-25T10:29:54.712Z,61.80
2019-05-25T10:30:54.719Z,61.32
2019-05-25T10:31:54.720Z,61.32
2019-05-25T10:32:54.716Z,62.48
2019-05-25T10:33:54.720Z,62.09
2019-05-25T10:34:54.722Z,61.74
2019-05-25T10:35:54.724Z,61.25
2019-05-25T10:36:54.727Z,62.12
2019-05-25T10:37:54.731Z,61.44
2019-05-25T10:38:54.725Z,60.68
2019-05-25T10:39:54.739Z,59.32
2019-05-25T10:40:58.265Z,59.68
2019-05-25T10:41:54.742Z,61.06
2019-05-25T10:42:54.739Z,61.54
2019-05-25T10:43:54.730Z,59.87
2019-05-25T10:44:54.740Z,60.16
2019-05-25T10:45:54.741Z,60.64
2019-05-25T10:46:54.747Z,60.06
2019-05-25T10:47:54.751Z,59.78
2019-05-25T10:48:54.744Z,59.30
2019-05-25T10:49:54.784Z,59.30
2019-05-25T10:50:54.753Z,59.97
2019-05-25T10:51:54.745Z,60.45
2019-05-25T10:52:54.745Z,61.19
2019-05-25T10:53:54.752Z,61.29
2019-05-25T10:54:54.757Z,61.22
2019-05-25T10:55:54.767Z,61.22
2019-05-25T10:56:54.923Z,60.93
2019-05-25T10:57:54.791Z,61.51
2019-05-25T10:58:54.769Z,61.13
2019-05-25T10:59:54.780Z,61.03
2019-05-25T11:00:54.768Z,61.61
2019-05-25T11:01:54.776Z,60.64
2019-05-25T11:02:54.773Z,60.26
2019-05-25T11:03:54.783Z,59.84
2019-05-25T11:04:56.091Z,59.75
2019-05-25T11:05:54.768Z,59.94
2019-05-25T11:06:54.774Z,60.42
2019-05-25T11:07:54.799Z,59.94
2019-05-25T11:08:54.781Z,59.84
2019-05-25T11:09:54.782Z,59.84
2019-05-25T11:10:54.822Z,60.32
2019-05-25T11:11:54.792Z,61.00
2019-05-25T11:12:54.773Z,60.90
2019-05-25T11:13:54.790Z,61.19
2019-05-25T11:14:54.786Z,61.77
2019-05-25T11:15:54.778Z,62.06
2019-05-25T11:16:54.800Z,61.10
2019-05-25T11:17:54.784Z,61.19
2019-05-25T11:18:54.799Z,61.10
2019-05-25T11:19:54.793Z,60.42
2019-05-25T11:20:54.787Z,60.71
2019-05-25T11:21:54.788Z,61.10
2019-05-25T11:22:54.796Z,61.29
2019-05-25T11:23:54.780Z,61.19
2019-05-25T11:24:54.793Z,60.61
2019-05-25T11:25:54.784Z,60.42
2019-05-25T11:26:54.819Z,60.61
2019-05-25T11:27:54.801Z,60.64
2019-05-25T11:28:54.800Z,61.38
2019-05-25T11:30:07.949Z,61.58
2019-05-25T11:30:54.798Z,61.29
2019-05-25T11:31:58.987Z,61.19
2019-05-25T11:32:54.786Z,62.57
2019-05-25T11:33:54.799Z,62.48
2019-05-25T11:34:54.800Z,62.28
2019-05-25T11:35:54.795Z,61.51
2019-05-25T11:36:54.803Z,60.64
2019-05-25T11:37:54.804Z,60.45
2019-05-25T11:38:54.802Z,61.22
2019-05-25T11:39:54.802Z,62.45
2019-05-25T11:40:54.802Z,62.66
2019-05-25T11:41:54.802Z,62.28
2019-05-25T11:42:54.800Z,60.80
2019-05-25T11:43:54.807Z,61.38
2019-05-25T11:44:55.621Z,63.21
2019-05-25T11:45:54.810Z,64.37
2019-05-25T11:46:54.818Z,66.20
2019-05-25T11:47:54.811Z,62.93
2019-05-25T11:48:54.810Z,62.63
2019-05-25T11:49:54.811Z,62.76
2019-05-25T11:50:54.815Z,63.41
2019-05-25T11:51:54.812Z,62.86
2019-05-25T11:52:54.818Z,63.15
2019-05-25T11:53:54.815Z,62.76
2019-05-25T11:54:54.818Z,61.99
2019-05-25T11:55:54.819Z,59.87
2019-05-25T11:56:55.633Z,61.13
2019-05-25T11:57:54.830Z,60.26
2019-05-25T11:58:54.821Z,62.18
2019-05-25T11:59:54.814Z,62.22
2019-05-25T12:00:54.813Z,62.12
2019-05-25T12:01:54.830Z,62.02
2019-05-25T12:02:54.828Z,62.60
2019-05-25T12:03:54.817Z,63.57
2019-05-25T12:04:54.818Z,60.61
2019-05-25T12:05:54.823Z,58.65
2019-05-25T12:06:55.639Z,58.36
2019-05-25T12:07:54.822Z,57.52
2019-05-25T12:08:54.821Z,57.29
2019-05-25T12:09:54.839Z,57.39
2019-05-25T12:10:54.827Z,57.20
2019-05-25T12:11:54.825Z,56.91
2019-05-25T12:12:54.825Z,57.49
2019-05-25T12:13:54.820Z,56.91
2019-05-25T12:14:54.823Z,57.59
2019-05-25T12:15:54.828Z,56.72
2019-05-25T12:16:54.828Z,57.49
2019-05-25T12:17:54.882Z,57.20
2019-05-25T12:18:54.839Z,57.27
2019-05-25T12:19:54.840Z,57.56
2019-05-25T12:20:54.838Z,57.46
2019-05-25T12:21:54.849Z,56.88
2019-05-25T12:22:54.837Z,56.88
2019-05-25T12:23:54.834Z,56.79
2019-05-25T12:24:54.840Z,57.37
2019-05-25T12:25:54.838Z,57.37
2019-05-25T12:26:54.840Z,58.04
2019-05-25T12:27:54.838Z,57.75
2019-05-25T12:28:54.839Z,58.04
2019-05-25T12:29:54.836Z,58.04
2019-05-25T12:30:54.877Z,58.62
2019-05-25T12:32:03.720Z,58.72
2019-05-25T12:32:54.899Z,58.72
2019-05-25T12:33:54.850Z,58.52
2019-05-25T12:34:54.842Z,58.52
2019-05-25T12:35:54.848Z,58.23
2019-05-25T12:36:54.836Z,58.81
2019-05-25T12:37:54.853Z,58.72
2019-05-25T12:38:54.908Z,58.52
2019-05-25T12:39:54.858Z,58.20
2019-05-25T12:40:55.183Z,57.92
2019-05-25T12:41:54.844Z,57.92
2019-05-25T12:42:54.841Z,57.72
2019-05-25T12:43:55.291Z,57.53
2019-05-25T12:44:55.709Z,58.01
2019-05-25T12:45:54.850Z,57.65
2019-05-25T12:46:54.854Z,58.01
2019-05-25T12:47:54.855Z,57.75
2019-05-25T12:48:54.846Z,58.01
2019-05-25T12:49:54.853Z,58.49
2019-05-25T12:50:55.188Z,58.01
2019-05-25T12:51:54.855Z,57.72
2019-05-25T12:52:54.847Z,58.42